sensor_id;sensor_type;location;lat;lon;timestamp;pressure;altitude;pressure_sealevel;temperature;humidity
14041;BME280;7095;51.388;6.196;2022-10-17T00:01:19;113654.06;;;-145.32;100.00
14041;BME280;7095;51.388;6.196;2022-10-17T00:03:47;113913.03;;;-145.32;100.00
14041;BME280;7095;51.388;6.196;2022-10-17T00:06:16;114172.03;;;-145.32;100.00
14041;BME280;7095;51.388;6.196;2022-10-17T00:08:46;114172.03;;;-145.32;100.00
14041;BME280;7095;51.388;6.196;2022-10-17T00:11:18;113913.03;;;-145.32;100.00
14041;BME280;7095;51.388;6.196;2022-10-17T00:13:50;114172.03;;;-145.32;100.00
14041;BME280;7095;51.388;6.196;2022-10-17T00:16:26;114172.03;;;-145.32;100.00
14041;BME280;7095;51.388;6.196;2022-10-17T00:18:55;114431.03;;;-145.32;100.00
14041;BME280;7095;51.388;6.196;2022-10-17T00:21:25;114690.03;;;-145.32;100.00
14041;BME280;7095;51.388;6.196;2022-10-17T00:23:53;114690.03;;;-145.32;100.00
14041;BME280;7095;51.388;6.196;2022-10-17T00:26:22;114690.03;;;-145.32;100.00
14041;BME280;7095;51.388;6.196;2022-10-17T00:28:52;114431.03;;;-145.32;100.00
14041;BME280;7095;51.388;6.196;2022-10-17T00:31:23;114690.03;;;-145.32;100.00
14041;BME280;7095;51.388;6.196;2022-10-17T00:33:52;114690.03;;;-145.32;100.00
14041;BME280;7095;51.388;6.196;2022-10-17T00:36:22;114431.03;;;-145.32;100.00
14041;BME280;7095;51.388;6.196;2022-10-17T00:38:55;114690.03;;;-145.32;100.00
14041;BME280;7095;51.388;6.196;2022-10-17T00:41:26;114949.09;;;-145.32;100.00
14041;BME280;7095;51.388;6.196;2022-10-17T00:43:59;114690.03;;;-145.32;100.00
14041;BME280;7095;51.388;6.196;2022-10-17T00:46:31;114431.03;;;-145.32;100.00
14041;BME280;7095;51.388;6.196;2022-10-17T00:49:04;114690.03;;;-145.32;100.00
14041;BME280;7095;51.388;6.196;2022-10-17T00:51:37;114690.03;;;-145.32;100.00
14041;BME280;7095;51.388;6.196;2022-10-17T00:54:06;114690.03;;;-145.32;100.00
14041;BME280;7095;51.388;6.196;2022-10-17T00:56:37;114690.03;;;-145.32;100.00
14041;BME280;7095;51.388;6.196;2022-10-17T00:59:08;114949.09;;;-145.32;100.00
14041;BME280;7095;51.388;6.196;2022-10-17T01:01:38;114949.09;;;-145.32;100.00
14041;BME280;7095;51.388;6.196;2022-10-17T01:04:08;115208.13;;;-145.32;100.00
14041;BME280;7095;51.388;6.196;2022-10-17T01:06:38;114949.09;;;-145.32;100.00
14041;BME280;7095;51.388;6.196;2022-10-17T01:09:07;114949.09;;;-145.32;100.00
14041;BME280;7095;51.388;6.196;2022-10-17T01:11:41;114949.09;;;-145.32;100.00
14041;BME280;7095;51.388;6.196;2022-10-17T01:14:21;114949.09;;;-145.32;100.00
14041;BME280;7095;51.388;6.196;2022-10-17T01:16:59;114949.09;;;-145.32;100.00
14041;BME280;7095;51.388;6.196;2022-10-17T01:20:04;114949.09;;;-145.32;100.00
14041;BME280;7095;51.388;6.196;2022-10-17T01:22:44;114949.09;;;-145.32;100.00
14041;BME280;7095;51.388;6.196;2022-10-17T01:25:24;114690.03;;;-145.32;100.00
14041;BME280;7095;51.388;6.196;2022-10-17T01:28:13;114690.03;;;-145.32;100.00
14041;BME280;7095;51.388;6.196;2022-10-17T01:31:03;114431.03;;;-145.32;100.00
14041;BME280;7095;51.388;6.196;2022-10-17T01:33:47;114431.03;;;-145.32;100.00
14041;BME280;7095;51.388;6.196;2022-10-17T01:36:27;114431.03;;;-145.32;100.00
14041;BME280;7095;51.388;6.196;2022-10-17T01:39:02;114431.03;;;-145.32;100.00
14041;BME280;7095;51.388;6.196;2022-10-17T01:41:38;114431.03;;;-145.32;100.00
14041;BME280;7095;51.388;6.196;2022-10-17T01:44:12;114431.03;;;-145.32;100.00
14041;BME280;7095;51.388;6.196;2022-10-17T01:46:46;114172.03;;;-145.32;100.00
14041;BME280;7095;51.388;6.196;2022-10-17T01:49:20;114172.03;;;-145.32;100.00
14041;BME280;7095;51.388;6.196;2022-10-17T01:51:55;114431.03;;;-145.32;100.00
14041;BME280;7095;51.388;6.196;2022-10-17T01:54:30;114431.03;;;-145.32;100.00
14041;BME280;7095;51.388;6.196;2022-10-17T01:57:05;114690.03;;;-145.32;100.00
14041;BME280;7095;51.388;6.196;2022-10-17T01:59:39;114690.03;;;-145.32;100.00
14041;BME280;7095;51.388;6.196;2022-10-17T02:02:11;114172.03;;;-145.32;100.00
14041;BME280;7095;51.388;6.196;2022-10-17T02:04:42;114172.03;;;-145.32;100.00
14041;BME280;7095;51.388;6.196;2022-10-17T02:07:14;114172.03;;;-145.32;100.00
14041;BME280;7095;51.388;6.196;2022-10-17T02:09:43;114172.03;;;-145.32;100.00
14041;BME280;7095;51.388;6.196;2022-10-17T02:12:26;114431.03;;;-145.32;100.00
14041;BME280;7095;51.388;6.196;2022-10-17T02:15:09;114431.03;;;-145.32;100.00
14041;BME280;7095;51.388;6.196;2022-10-17T02:17:55;114172.03;;;-145.32;100.00
14041;BME280;7095;51.388;6.196;2022-10-17T02:20:29;114431.03;;;-145.32;100.00
14041;BME280;7095;51.388;6.196;2022-10-17T02:23:07;114431.03;;;-145.32;100.00
14041;BME280;7095;51.388;6.196;2022-10-17T02:25:44;114172.03;;;-145.32;100.00
14041;BME280;7095;51.388;6.196;2022-10-17T02:28:20;114172.03;;;-145.32;100.00
14041;BME280;7095;51.388;6.196;2022-10-17T02:30:53;114172.03;;;-145.32;100.00
14041;BME280;7095;51.388;6.196;2022-10-17T02:33:28;114172.03;;;-145.32;100.00
14041;BME280;7095;51.388;6.196;2022-10-17T02:36:02;113913.03;;;-145.32;100.00
14041;BME280;7095;51.388;6.196;2022-10-17T02:38:33;113654.06;;;-145.32;100.00
14041;BME280;7095;51.388;6.196;2022-10-17T02:41:05;113654.06;;;-145.32;100.00
14041;BME280;7095;51.388;6.196;2022-10-17T02:43:36;113654.06;;;-145.32;100.00
14041;BME280;7095;51.388;6.196;2022-10-17T02:46:06;113654.06;;;-145.32;100.00
14041;BME280;7095;51.388;6.196;2022-10-17T02:48:40;113913.03;;;-145.32;100.00
14041;BME280;7095;51.388;6.196;2022-10-17T02:51:14;114172.03;;;-145.32;100.00
14041;BME280;7095;51.388;6.196;2022-10-17T02:53:47;113913.03;;;-145.32;100.00
14041;BME280;7095;51.388;6.196;2022-10-17T02:56:21;113654.06;;;-145.32;100.00
14041;BME280;7095;51.388;6.196;2022-10-17T02:58:52;113395.13;;;-145.32;100.00
14041;BME280;7095;51.388;6.196;2022-10-17T03:01:21;114172.03;;;-145.32;100.00
14041;BME280;7095;51.388;6.196;2022-10-17T03:04:03;114172.03;;;-145.32;100.00
14041;BME280;7095;51.388;6.196;2022-10-17T03:06:32;113913.03;;;-145.32;100.00
14041;BME280;7095;51.388;6.196;2022-10-17T03:09:01;113913.03;;;-145.32;100.00
14041;BME280;7095;51.388;6.196;2022-10-17T03:11:29;113654.06;;;-145.32;100.00
14041;BME280;7095;51.388;6.196;2022-10-17T03:13:58;113654.06;;;-145.32;100.00
14041;BME280;7095;51.388;6.196;2022-10-17T03:16:27;113395.13;;;-145.32;100.00
14041;BME280;7095;51.388;6.196;2022-10-17T03:18:57;113913.03;;;-145.32;100.00
14041;BME280;7095;51.388;6.196;2022-10-17T03:21:26;113913.03;;;-145.32;100.00
14041;BME280;7095;51.388;6.196;2022-10-17T03:23:56;113654.06;;;-145.32;100.00
14041;BME280;7095;51.388;6.196;2022-10-17T03:26:25;113654.06;;;-145.32;100.00
14041;BME280;7095;51.388;6.196;2022-10-17T03:28:56;113654.06;;;-145.32;100.00
14041;BME280;7095;51.388;6.196;2022-10-17T03:31:27;113913.03;;;-145.32;100.00
14041;BME280;7095;51.388;6.196;2022-10-17T03:34:00;113654.06;;;-145.32;100.00
14041;BME280;7095;51.388;6.196;2022-10-17T03:36:29;113654.06;;;-145.32;100.00
14041;BME280;7095;51.388;6.196;2022-10-17T03:38:58;113654.06;;;-145.32;100.00
14041;BME280;7095;51.388;6.196;2022-10-17T03:41:27;113395.13;;;-145.32;100.00
14041;BME280;7095;51.388;6.196;2022-10-17T03:43:55;113395.13;;;-145.32;100.00
14041;BME280;7095;51.388;6.196;2022-10-17T03:46:24;113136.22;;;-145.32;100.00
14041;BME280;7095;51.388;6.196;2022-10-17T03:48:54;113395.13;;;-145.32;100.00
14041;BME280;7095;51.388;6.196;2022-10-17T03:51:25;113395.13;;;-145.32;100.00
14041;BME280;7095;51.388;6.196;2022-10-17T03:54:00;113654.06;;;-145.32;100.00
14041;BME280;7095;51.388;6.196;2022-10-17T03:56:29;113654.06;;;-145.32;100.00
14041;BME280;7095;51.388;6.196;2022-10-17T03:59:11;113654.06;;;-145.32;100.00
14041;BME280;7095;51.388;6.196;2022-10-17T04:01:42;113654.06;;;-145.32;100.00
14041;BME280;7095;51.388;6.196;2022-10-17T04:04:11;113913.03;;;-145.32;100.00
14041;BME280;7095;51.388;6.196;2022-10-17T04:06:41;113654.06;;;-145.32;100.00
14041;BME280;7095;51.388;6.196;2022-10-17T04:09:10;113395.13;;;-145.32;100.00
14041;BME280;7095;51.388;6.196;2022-10-17T04:11:51;113654.06;;;-145.32;100.00
14041;BME280;7095;51.388;6.196;2022-10-17T04:14:21;113654.06;;;-145.32;100.00
14041;BME280;7095;51.388;6.196;2022-10-17T04:16:50;113654.06;;;-145.32;100.00
14041;BME280;7095;51.388;6.196;2022-10-17T04:19:21;113654.06;;;-145.32;100.00
14041;BME280;7095;51.388;6.196;2022-10-17T04:21:51;113395.13;;;-145.32;100.00
14041;BME280;7095;51.388;6.196;2022-10-17T04:24:20;113395.13;;;-145.32;100.00
14041;BME280;7095;51.388;6.196;2022-10-17T04:26:54;113395.13;;;-145.32;100.00
14041;BME280;7095;51.388;6.196;2022-10-17T04:29:26;113395.13;;;-145.32;100.00
14041;BME280;7095;51.388;6.196;2022-10-17T04:32:06;113654.06;;;-145.32;100.00
14041;BME280;7095;51.388;6.196;2022-10-17T04:34:52;113654.06;;;-145.32;100.00
14041;BME280;7095;51.388;6.196;2022-10-17T04:37:23;113654.06;;;-145.32;100.00
14041;BME280;7095;51.388;6.196;2022-10-17T04:39:53;113654.06;;;-145.32;100.00
14041;BME280;7095;51.388;6.196;2022-10-17T04:42:22;113654.06;;;-145.32;100.00
14041;BME280;7095;51.388;6.196;2022-10-17T04:44:52;113913.03;;;-145.32;100.00
14041;BME280;7095;51.388;6.196;2022-10-17T04:47:23;113654.06;;;-145.32;100.00
14041;BME280;7095;51.388;6.196;2022-10-17T04:49:52;113395.13;;;-145.32;100.00
14041;BME280;7095;51.388;6.196;2022-10-17T04:52:23;113654.06;;;-145.32;100.00
14041;BME280;7095;51.388;6.196;2022-10-17T04:54:53;113654.06;;;-145.32;100.00
14041;BME280;7095;51.388;6.196;2022-10-17T04:57:22;113654.06;;;-145.32;100.00
14041;BME280;7095;51.388;6.196;2022-10-17T05:00:23;113913.03;;;-145.32;100.00
14041;BME280;7095;51.388;6.196;2022-10-17T05:02:58;113913.03;;;-145.32;100.00
14041;BME280;7095;51.388;6.196;2022-10-17T05:05:29;114172.03;;;-145.32;100.00
14041;BME280;7095;51.388;6.196;2022-10-17T05:08:01;114172.03;;;-145.32;100.00
14041;BME280;7095;51.388;6.196;2022-10-17T05:10:35;113913.03;;;-145.32;100.00
14041;BME280;7095;51.388;6.196;2022-10-17T05:13:04;113913.03;;;-145.32;100.00
14041;BME280;7095;51.388;6.196;2022-10-17T05:15:34;113654.06;;;-145.32;100.00
14041;BME280;7095;51.388;6.196;2022-10-17T05:18:04;113395.13;;;-145.32;100.00
14041;BME280;7095;51.388;6.196;2022-10-17T05:20:34;113654.06;;;-145.32;100.00
14041;BME280;7095;51.388;6.196;2022-10-17T05:23:06;113913.03;;;-145.32;100.00
14041;BME280;7095;51.388;6.196;2022-10-17T05:25:39;113913.03;;;-145.32;100.00
14041;BME280;7095;51.388;6.196;2022-10-17T05:28:07;113913.03;;;-145.32;100.00
14041;BME280;7095;51.388;6.196;2022-10-17T05:30:37;113654.06;;;-145.32;100.00
14041;BME280;7095;51.388;6.196;2022-10-17T05:33:08;113654.06;;;-145.32;100.00
14041;BME280;7095;51.388;6.196;2022-10-17T05:35:36;113395.13;;;-145.32;100.00
14041;BME280;7095;51.388;6.196;2022-10-17T05:38:06;113395.13;;;-145.32;100.00
14041;BME280;7095;51.388;6.196;2022-10-17T05:40:36;113654.06;;;-145.32;100.00
14041;BME280;7095;51.388;6.196;2022-10-17T05:43:05;113654.06;;;-145.32;100.00
14041;BME280;7095;51.388;6.196;2022-10-17T05:45:35;113654.06;;;-145.32;100.00
14041;BME280;7095;51.388;6.196;2022-10-17T05:48:07;113654.06;;;-145.32;100.00
14041;BME280;7095;51.388;6.196;2022-10-17T05:50:36;113395.13;;;-145.32;100.00
14041;BME280;7095;51.388;6.196;2022-10-17T05:53:14;113654.06;;;-145.32;100.00
14041;BME280;7095;51.388;6.196;2022-10-17T05:55:54;113395.13;;;-145.32;100.00
14041;BME280;7095;51.388;6.196;2022-10-17T05:58:23;113395.13;;;-145.32;100.00
14041;BME280;7095;51.388;6.196;2022-10-17T06:01:22;113395.13;;;-145.32;100.00
14041;BME280;7095;51.388;6.196;2022-10-17T06:03:52;113136.22;;;-145.32;100.00
14041;BME280;7095;51.388;6.196;2022-10-17T06:06:21;113136.22;;;-145.32;100.00
14041;BME280;7095;51.388;6.196;2022-10-17T06:08:51;113136.22;;;-145.32;100.00
14041;BME280;7095;51.388;6.196;2022-10-17T06:11:25;113136.22;;;-145.32;100.00
14041;BME280;7095;51.388;6.196;2022-10-17T06:13:54;113395.13;;;-145.32;100.00
14041;BME280;7095;51.388;6.196;2022-10-17T06:16:25;113395.13;;;-145.32;100.00
14041;BME280;7095;51.388;6.196;2022-10-17T06:18:54;113395.13;;;-145.32;100.00
14041;BME280;7095;51.388;6.196;2022-10-17T06:21:25;113654.06;;;-145.32;100.00
14041;BME280;7095;51.388;6.196;2022-10-17T06:24:05;113654.06;;;-145.32;100.00
14041;BME280;7095;51.388;6.196;2022-10-17T06:26:36;113913.03;;;-145.32;100.00
14041;BME280;7095;51.388;6.196;2022-10-17T06:29:07;113913.03;;;-145.32;100.00
14041;BME280;7095;51.388;6.196;2022-10-17T06:31:42;113913.03;;;-145.32;100.00
14041;BME280;7095;51.388;6.196;2022-10-17T06:34:11;114172.03;;;-145.32;100.00
14041;BME280;7095;51.388;6.196;2022-10-17T06:36:40;114431.03;;;-145.32;100.00
14041;BME280;7095;51.388;6.196;2022-10-17T06:39:11;114431.03;;;-145.32;100.00
14041;BME280;7095;51.388;6.196;2022-10-17T06:41:50;114172.03;;;-145.32;100.00
14041;BME280;7095;51.388;6.196;2022-10-17T06:44:19;114431.03;;;-145.32;100.00
14041;BME280;7095;51.388;6.196;2022-10-17T06:47:08;114431.03;;;-145.32;100.00
14041;BME280;7095;51.388;6.196;2022-10-17T06:49:36;114431.03;;;-145.32;100.00
14041;BME280;7095;51.388;6.196;2022-10-17T06:52:28;114431.03;;;-145.32;100.00
14041;BME280;7095;51.388;6.196;2022-10-17T06:55:16;114172.03;;;-145.32;100.00
14041;BME280;7095;51.388;6.196;2022-10-17T06:58:07;114431.03;;;-145.32;100.00
14041;BME280;7095;51.388;6.196;2022-10-17T07:00:43;114431.03;;;-145.32;100.00
14041;BME280;7095;51.388;6.196;2022-10-17T07:03:12;114431.03;;;-145.32;100.00
14041;BME280;7095;51.388;6.196;2022-10-17T07:05:41;114431.03;;;-145.32;100.00
14041;BME280;7095;51.388;6.196;2022-10-17T07:08:09;114431.03;;;-145.32;100.00
14041;BME280;7095;51.388;6.196;2022-10-17T07:10:39;114431.03;;;-145.32;100.00
14041;BME280;7095;51.388;6.196;2022-10-17T07:13:08;114431.03;;;-145.32;100.00
14041;BME280;7095;51.388;6.196;2022-10-17T07:15:37;114431.03;;;-145.32;100.00
14041;BME280;7095;51.388;6.196;2022-10-17T07:18:06;114431.03;;;-145.32;100.00
14041;BME280;7095;51.388;6.196;2022-10-17T07:20:35;114431.03;;;-145.32;100.00
14041;BME280;7095;51.388;6.196;2022-10-17T07:23:04;114172.03;;;-145.32;100.00
14041;BME280;7095;51.388;6.196;2022-10-17T07:25:33;114172.03;;;-145.32;100.00
14041;BME280;7095;51.388;6.196;2022-10-17T07:28:09;114431.03;;;-145.32;100.00
14041;BME280;7095;51.388;6.196;2022-10-17T07:30:39;114431.03;;;-145.32;100.00
14041;BME280;7095;51.388;6.196;2022-10-17T07:33:10;114172.03;;;-145.32;100.00
14041;BME280;7095;51.388;6.196;2022-10-17T07:35:39;114172.03;;;-145.32;100.00
14041;BME280;7095;51.388;6.196;2022-10-17T07:38:09;114172.03;;;-145.32;100.00
14041;BME280;7095;51.388;6.196;2022-10-17T07:40:37;114172.03;;;-145.32;100.00
14041;BME280;7095;51.388;6.196;2022-10-17T07:43:06;114431.03;;;-145.32;100.00
14041;BME280;7095;51.388;6.196;2022-10-17T07:45:37;113913.03;;;-145.32;100.00
14041;BME280;7095;51.388;6.196;2022-10-17T07:48:08;113913.03;;;-145.32;100.00
14041;BME280;7095;51.388;6.196;2022-10-17T07:50:37;113913.03;;;-145.32;100.00
14041;BME280;7095;51.388;6.196;2022-10-17T07:53:06;113395.13;;;-145.32;100.00
14041;BME280;7095;51.388;6.196;2022-10-17T07:55:35;112877.31;;;-145.32;100.00
14041;BME280;7095;51.388;6.196;2022-10-17T07:58:04;112100.69;;;-145.32;100.00
14041;BME280;7095;51.388;6.196;2022-10-17T08:00:33;113136.22;;;-145.32;100.00
14041;BME280;7095;51.388;6.196;2022-10-17T08:03:04;112877.31;;;-145.32;100.00
14041;BME280;7095;51.388;6.196;2022-10-17T08:05:33;111583.06;;;-145.32;100.00
14041;BME280;7095;51.388;6.196;2022-10-17T08:08:02;112100.69;;;-145.32;100.00
14041;BME280;7095;51.388;6.196;2022-10-17T08:10:31;112100.69;;;-145.32;100.00
14041;BME280;7095;51.388;6.196;2022-10-17T08:13:00;111583.06;;;-145.32;100.00
14041;BME280;7095;51.388;6.196;2022-10-17T08:15:29;110548.00;;;-145.32;100.00
14041;BME280;7095;51.388;6.196;2022-10-17T08:17:58;110030.59;;;-145.32;100.00
14041;BME280;7095;51.388;6.196;2022-10-17T08:20:28;110030.59;;;-145.32;100.00
14041;BME280;7095;51.388;6.196;2022-10-17T08:22:57;109254.63;;;-145.32;100.00
14041;BME280;7095;51.388;6.196;2022-10-17T08:25:25;108478.84;;;-145.32;100.00
14041;BME280;7095;51.388;6.196;2022-10-17T08:27:54;108737.41;;;-145.32;100.00
14041;BME280;7095;51.388;6.196;2022-10-17T08:30:23;108737.41;;;-145.32;100.00
14041;BME280;7095;51.388;6.196;2022-10-17T08:32:53;108478.84;;;-145.32;100.00
14041;BME280;7095;51.388;6.196;2022-10-17T08:35:22;108478.84;;;-145.32;100.00
14041;BME280;7095;51.388;6.196;2022-10-17T08:37:53;108220.28;;;-145.32;100.00
14041;BME280;7095;51.388;6.196;2022-10-17T08:40:26;106152.47;;;-145.32;100.00
14041;BME280;7095;51.388;6.196;2022-10-17T08:43:09;105635.72;;;-145.32;100.00
14041;BME280;7095;51.388;6.196;2022-10-17T08:45:44;104344.16;;;-145.32;100.00
14041;BME280;7095;51.388;6.196;2022-10-17T08:48:16;105377.34;;;-145.32;100.00
14041;BME280;7095;51.388;6.196;2022-10-17T08:50:49;103053.06;;;-145.32;100.00
14041;BME280;7095;51.388;6.196;2022-10-17T08:53:26;100730.31;;;-145.32;100.00
14041;BME280;7095;51.388;6.196;2022-10-17T08:56:02;102536.75;;;-145.32;100.00
14041;BME280;7095;51.388;6.196;2022-10-17T08:58:41;99698.47;;;-145.32;100.00
14041;BME280;7095;51.388;6.196;2022-10-17T09:01:21;98924.81;;;-145.32;100.00
14041;BME280;7095;51.388;6.196;2022-10-17T09:04:20;97377.97;;;-145.32;100.00
14041;BME280;7095;51.388;6.196;2022-10-17T09:06:58;94543.91;;;-145.32;100.00
14041;BME280;7095;51.388;6.196;2022-10-17T09:09:35;91454.81;;;-145.32;100.00
14041;BME280;7095;51.388;6.196;2022-10-17T09:12:19;89911.31;;;-145.32;100.00
14041;BME280;7095;51.388;6.196;2022-10-17T09:15:11;87597.34;;;-145.32;100.00
14041;BME280;7095;51.388;6.196;2022-10-17T09:17:51;83230.72;;;-145.32;100.00
14041;BME280;7095;51.388;6.196;2022-10-17T09:20:24;79638.84;;;-145.32;100.00
14041;BME280;7095;51.388;6.196;2022-10-17T09:22:56;79638.84;;;-145.32;100.00
14041;BME280;7095;51.388;6.196;2022-10-17T09:25:28;76563.09;;;-145.32;100.00
14041;BME280;7095;51.388;6.196;2022-10-17T09:28:11;71954.59;;;-145.32;100.00
14041;BME280;7095;51.388;6.196;2022-10-17T09:30:42;66342.38;;;-145.32;100.00
14041;BME280;7095;51.388;6.196;2022-10-17T09:33:14;64038.25;;;-145.32;100.00
14041;BME280;7095;51.388;6.196;2022-10-17T09:36:04;62528.97;;;-145.32;100.00
14041;BME280;7095;51.388;6.196;2022-10-17T09:38:39;60498.34;;;-145.32;100.00
14041;BME280;7095;51.388;6.196;2022-10-17T09:41:16;58843.25;;;-145.32;100.00
14041;BME280;7095;51.388;6.196;2022-10-17T09:44:14;57895.56;;;-145.32;100.00
14041;BME280;7095;51.388;6.196;2022-10-17T09:46:53;58028.94;;;-145.32;100.00
14041;BME280;7095;51.388;6.196;2022-10-17T09:49:37;57119.31;;;-145.32;100.00
14041;BME280;7095;51.388;6.196;2022-10-17T09:52:11;57055.63;;;-145.32;100.00
14041;BME280;7095;51.388;6.196;2022-10-17T09:54:43;56458.63;;;-145.32;100.00
14041;BME280;7095;51.388;6.196;2022-10-17T09:57:15;56496.44;;;-145.32;100.00
14041;BME280;7095;51.388;6.196;2022-10-17T09:59:47;56566.09;;;-145.32;100.00
14041;BME280;7095;51.388;6.196;2022-10-17T10:02:24;56546.19;;;-145.32;100.00
14041;BME280;7095;51.388;6.196;2022-10-17T10:04:59;57035.72;;;-145.32;100.00
14041;BME280;7095;51.388;6.196;2022-10-17T10:07:33;57149.16;;;-145.32;100.00
14041;BME280;7095;51.388;6.196;2022-10-17T10:10:06;57823.91;;;-145.32;100.00
14041;BME280;7095;51.388;6.196;2022-10-17T10:12:38;58098.63;;;-145.32;100.00
14041;BME280;7095;51.388;6.196;2022-10-17T10:15:32;57549.22;;;-145.32;100.00
14041;BME280;7095;51.388;6.196;2022-10-17T10:18:01;57708.44;;;-145.32;100.00
14041;BME280;7095;51.388;6.196;2022-10-17T10:20:34;57604.94;;;-145.32;100.00
14041;BME280;7095;51.388;6.196;2022-10-17T10:23:21;57433.78;;;-145.32;100.00
14041;BME280;7095;51.388;6.196;2022-10-17T10:25:54;57965.25;;;-145.32;100.00
14041;BME280;7095;51.388;6.196;2022-10-17T10:28:29;57724.38;;;-145.32;100.00
14041;BME280;7095;51.388;6.196;2022-10-17T10:31:04;58068.75;;;-145.32;100.00
14041;BME280;7095;51.388;6.196;2022-10-17T10:33:39;58176.25;;;-145.32;100.00
14041;BME280;7095;51.388;6.196;2022-10-17T10:36:12;58460.97;;;-145.32;100.00
14041;BME280;7095;51.388;6.196;2022-10-17T10:38:51;59221.59;;;-145.32;100.00
14041;BME280;7095;51.388;6.196;2022-10-17T10:41:20;60356.88;;;-145.32;100.00
14041;BME280;7095;51.388;6.196;2022-10-17T10:43:55;61763.59;;;-145.32;100.00
14041;BME280;7095;51.388;6.196;2022-10-17T10:46:26;65476.41;;;-145.32;100.00
14041;BME280;7095;51.388;6.196;2022-10-17T10:48:58;69221.25;;;-145.32;100.00
14041;BME280;7095;51.388;6.196;2022-10-17T10:51:30;71838.66;;;-145.32;100.00
14041;BME280;7095;51.388;6.196;2022-10-17T10:54:03;73746.06;;;-145.32;100.00
14041;BME280;7095;51.388;6.196;2022-10-17T10:56:37;75538.44;;;-145.32;100.00
14041;BME280;7095;51.388;6.196;2022-10-17T10:59:16;77588.03;;;-145.32;100.00
14041;BME280;7095;51.388;6.196;2022-10-17T11:01:51;79895.28;;;-145.32;100.00
14041;BME280;7095;51.388;6.196;2022-10-17T11:04:28;82717.38;;;-145.32;100.00
14041;BME280;7095;51.388;6.196;2022-10-17T11:07:08;86569.41;;;-145.32;100.00
14041;BME280;7095;51.388;6.196;2022-10-17T11:09:45;89139.81;;;-145.32;100.00
14041;BME280;7095;51.388;6.196;2022-10-17T11:12:21;90168.50;;;-145.32;100.00
14041;BME280;7095;51.388;6.196;2022-10-17T11:14:58;91197.50;;;-145.32;100.00
14041;BME280;7095;51.388;6.196;2022-10-17T11:17:35;93513.91;;;-145.32;100.00
14041;BME280;7095;51.388;6.196;2022-10-17T11:20:13;94543.91;;;-145.32;100.00
14041;BME280;7095;51.388;6.196;2022-10-17T11:22:47;97377.97;;;-145.32;100.00
14041;BME280;7095;51.388;6.196;2022-10-17T11:25:33;97893.50;;;-145.32;100.00
14041;BME280;7095;51.388;6.196;2022-10-17T11:28:07;98924.81;;;-145.32;100.00
14041;BME280;7095;51.388;6.196;2022-10-17T11:30:44;98151.31;;;-145.32;100.00
14041;BME280;7095;51.388;6.196;2022-10-17T11:33:19;98924.81;;;-145.32;100.00
14041;BME280;7095;51.388;6.196;2022-10-17T11:35:56;99440.56;;;-145.32;100.00
14041;BME280;7095;51.388;6.196;2022-10-17T11:38:38;99698.47;;;-145.32;100.00
14041;BME280;7095;51.388;6.196;2022-10-17T11:41:12;100730.31;;;-145.32;100.00
14041;BME280;7095;51.388;6.196;2022-10-17T11:43:46;100730.31;;;-145.32;100.00
14041;BME280;7095;51.388;6.196;2022-10-17T11:46:20;102536.75;;;-145.32;100.00
14041;BME280;7095;51.388;6.196;2022-10-17T11:48:58;103311.25;;;-145.32;100.00
14041;BME280;7095;51.388;6.196;2022-10-17T11:51:29;102794.91;;;-145.32;100.00
14041;BME280;7095;51.388;6.196;2022-10-17T11:54:24;102278.66;;;-145.32;100.00
14041;BME280;7095;51.388;6.196;2022-10-17T11:57:07;102020.53;;;-145.32;100.00
14041;BME280;7095;51.388;6.196;2022-10-17T11:59:57;102536.75;;;-145.32;100.00
14041;BME280;7095;51.388;6.196;2022-10-17T12:02:37;101762.47;;;-145.32;100.00
14041;BME280;7095;51.388;6.196;2022-10-17T12:05:19;101246.34;;;-145.32;100.00
14041;BME280;7095;51.388;6.196;2022-10-17T12:12:32;100988.31;;;-145.32;100.00
14041;BME280;7095;51.388;6.196;2022-10-17T12:15:26;99698.47;;;-145.32;100.00
14041;BME280;7095;51.388;6.196;2022-10-17T12:18:01;99440.56;;;-145.32;100.00
14041;BME280;7095;51.388;6.196;2022-10-17T12:20:39;97635.72;;;-145.32;100.00
14041;BME280;7095;51.388;6.196;2022-10-17T12:23:24;97120.22;;;-145.32;100.00
14041;BME280;7095;51.388;6.196;2022-10-17T12:25:55;96604.81;;;-145.32;100.00
14041;BME280;7095;51.388;6.196;2022-10-17T12:28:32;95831.81;;;-145.32;100.00
14041;BME280;7095;51.388;6.196;2022-10-17T12:31:04;94286.38;;;-145.32;100.00
14041;BME280;7095;51.388;6.196;2022-10-17T12:33:47;94286.38;;;-145.32;100.00
14041;BME280;7095;51.388;6.196;2022-10-17T12:36:38;92741.59;;;-145.32;100.00
14041;BME280;7095;51.388;6.196;2022-10-17T12:42:32;91454.81;;;-145.32;100.00
14041;BME280;7095;51.388;6.196;2022-10-17T12:45:45;90682.97;;;-145.32;100.00
14041;BME280;7095;51.388;6.196;2022-10-17T12:54:39;89396.97;;;-145.32;100.00
14041;BME280;7095;51.388;6.196;2022-10-17T12:57:22;88882.69;;;-145.32;100.00
14041;BME280;7095;51.388;6.196;2022-10-17T13:05:07;88882.69;;;-145.32;100.00
14041;BME280;7095;51.388;6.196;2022-10-17T13:07:41;88882.69;;;-145.32;100.00
14041;BME280;7095;51.388;6.196;2022-10-17T13:10:31;89139.81;;;-145.32;100.00
14041;BME280;7095;51.388;6.196;2022-10-17T13:13:59;89911.31;;;-145.32;100.00
14041;BME280;7095;51.388;6.196;2022-10-17T13:17:19;90940.22;;;-145.32;100.00
14041;BME280;7095;51.388;6.196;2022-10-17T13:23:21;91197.50;;;-145.32;100.00
14041;BME280;7095;51.388;6.196;2022-10-17T13:26:43;91454.81;;;-145.32;100.00
14041;BME280;7095;51.388;6.196;2022-10-17T13:29:58;92741.59;;;-145.32;100.00
14041;BME280;7095;51.388;6.196;2022-10-17T13:34:32;91712.13;;;-145.32;100.00
14041;BME280;7095;51.388;6.196;2022-10-17T13:38:26;91712.13;;;-145.32;100.00